Time;durP1;ratioP1;P1;durP2;ratioP2;P2;SDS_P1;SDS_P2;PMS_P1;PMS_P2;Temp;Humidity;BMP_temperature;BMP_pressure;BME280_temperature;BME280_humidity;BME280_pressure;Samples;Min_cycle;Max_cycle;Signal;HPM_P1;HPM_P2
2021/04/09 00:02:25;;;;;;;6.43;5.10;;;2.60;91.00;;;;;;5077566;28;20090;-75
2021/04/09 00:04:51;;;;;;;8.02;5.53;;;2.60;90.90;;;;;;5095372;28;20015;-77
2021/04/09 00:07:17;;;;;;;7.03;4.95;;;2.70;90.80;;;;;;5093692;28;20421;-77
2021/04/09 00:09:43;;;;;;;6.55;4.82;;;2.70;90.70;;;;;;5095409;28;20111;-76
2021/04/09 00:12:10;;;;;;;5.93;4.28;;;2.80;90.60;;;;;;5095557;28;20047;-77
2021/04/09 00:14:36;;;;;;;7.18;5.72;;;2.80;90.50;;;;;;5095420;28;20020;-76
2021/04/09 00:17:02;;;;;;;7.82;4.90;;;2.70;90.40;;;;;;5095543;28;20020;-77
2021/04/09 00:19:28;;;;;;;6.47;5.13;;;2.60;90.30;;;;;;5095469;28;20024;-79
2021/04/09 00:21:54;;;;;;;8.07;4.90;;;2.60;90.40;;;;;;5084220;28;20482;-76
2021/04/09 00:24:26;;;;;;;6.18;4.65;;;2.60;90.50;;;;;;5092337;28;20426;-78
2021/04/09 00:26:54;;;;;;;8.73;4.70;;;2.60;90.60;;;;;;5095034;28;20115;-76
2021/04/09 00:29:21;;;;;;;7.47;5.32;;;2.70;90.50;;;;;;5095068;28;20024;-77
2021/04/09 00:31:47;;;;;;;10.40;5.88;;;2.70;90.40;;;;;;5095202;28;20024;-77
2021/04/09 00:34:15;;;;;;;6.07;4.63;;;2.70;90.30;;;;;;5094984;28;20431;-76
2021/04/09 00:36:41;;;;;;;8.40;5.15;;;2.80;90.30;;;;;;5094979;28;20028;-77
2021/04/09 00:39:13;;;;;;;5.57;4.68;;;2.70;90.60;;;;;;5095022;28;20062;-77
2021/04/09 00:41:45;;;;;;;7.20;5.57;;;2.70;90.20;;;;;;5076755;28;20476;-76
2021/04/09 00:44:14;;;;;;;9.20;5.57;;;2.70;90.20;;;;;;5094423;28;20020;-79
2021/04/09 00:46:40;;;;;;;8.05;5.68;;;2.70;90.20;;;;;;5094854;28;20073;-77
2021/04/09 00:49:08;;;;;;;7.00;5.20;;;2.70;90.30;;;;;;5094934;28;20028;-78
2021/04/09 00:51:35;;;;;;;6.68;4.50;;;2.80;90.20;;;;;;5094511;28;20016;-77
2021/04/09 00:54:02;;;;;;;7.43;4.95;;;2.80;90.10;;;;;;5075202;28;20496;-76
2021/04/09 00:56:33;;;;;;;10.10;6.05;;;2.80;90.10;;;;;;5094633;28;20032;-79
2021/04/09 00:59:04;;;;;;;8.90;4.85;;;2.80;90.10;;;;;;5094829;28;20484;-77
2021/04/09 01:01:33;;;;;;;6.15;5.22;;;2.80;90.20;;;;;;5094689;28;20063;-77
2021/04/09 01:04:01;;;;;;;8.18;5.45;;;2.80;89.80;;;;;;5094974;28;20059;-77
2021/04/09 01:06:27;;;;;;;8.95;6.20;;;2.80;89.90;;;;;;5094670;28;20026;-75
2021/04/09 01:08:53;;;;;;;8.55;6.32;;;2.90;89.90;;;;;;5076205;28;20024;-77
2021/04/09 01:11:19;;;;;;;9.25;6.32;;;2.80;89.80;;;;;;5092029;28;20048;-77
2021/04/09 01:13:46;;;;;;;7.25;4.95;;;2.80;89.80;;;;;;5094390;28;20016;-77
2021/04/09 01:16:35;;;;;;;6.78;4.72;;;2.90;89.80;;;;;;5094461;28;20059;-77
2021/04/09 01:19:18;;;;;;;8.38;6.15;;;2.80;89.70;;;;;;5094390;28;20488;-78
2021/04/09 01:21:53;;;;;;;9.18;5.18;;;2.80;89.60;;;;;;5094453;28;20099;-76
2021/04/09 01:24:54;;;;;;;11.10;5.88;;;2.80;89.50;;;;;;5094217;28;20035;-77
2021/04/09 01:27:41;;;;;;;6.03;5.07;;;2.70;89.60;;;;;;5094042;28;20026;-78
2021/04/09 01:30:18;;;;;;;10.27;6.13;;;2.70;89.50;;;;;;5094053;28;20458;-77
2021/04/09 01:32:44;;;;;;;6.13;5.23;;;2.70;89.60;;;;;;5094217;28;20020;-78
2021/04/09 01:38:16;;;;;;;6.50;4.63;;;2.70;89.90;;;;;;5093969;28;20032;-77
2021/04/09 01:40:45;;;;;;;7.57;5.18;;;2.80;89.70;;;;;;5075798;28;20058;-76
2021/04/09 01:43:25;;;;;;;7.07;5.25;;;2.80;89.70;;;;;;5093819;28;20421;-78
2021/04/09 01:45:51;;;;;;;8.68;5.82;;;2.80;89.60;;;;;;5093811;28;20032;-76
2021/04/09 01:48:19;;;;;;;8.52;5.70;;;2.70;89.60;;;;;;5093966;28;20035;-76
2021/04/09 01:50:46;;;;;;;9.02;4.97;;;2.80;89.70;;;;;;5093798;28;20016;-78
2021/04/09 01:53:14;;;;;;;6.53;4.93;;;2.80;89.60;;;;;;5093470;28;20031;-76
2021/04/09 01:55:45;;;;;;;8.02;4.63;;;2.80;89.40;;;;;;5087811;28;20443;-75
2021/04/09 01:58:12;;;;;;;7.72;4.95;;;2.80;89.60;;;;;;5089422;28;20028;-75
2021/04/09 02:00:39;;;;;;;7.73;5.10;;;2.80;89.60;;;;;;5093429;28;20028;-76
2021/04/09 02:03:06;;;;;;;8.23;5.83;;;2.90;89.40;;;;;;5091536;28;20061;-77
2021/04/09 02:05:33;;;;;;;11.00;5.72;;;3.00;89.30;;;;;;5093400;28;20024;-77
2021/04/09 02:08:02;;;;;;;5.43;4.85;;;3.00;89.10;;;;;;5095755;28;20024;-78
2021/04/09 02:10:28;;;;;;;7.90;4.88;;;2.90;88.80;;;;;;5093128;28;20074;-76
2021/04/09 02:12:55;;;;;;;8.00;5.45;;;2.90;88.80;;;;;;5093115;28;20055;-76
2021/04/09 02:15:23;;;;;;;7.20;5.15;;;2.80;88.40;;;;;;5093077;28;20027;-76
2021/04/09 02:17:49;;;;;;;7.53;5.97;;;2.80;88.80;;;;;;5075376;28;20032;-76
2021/04/09 02:20:21;;;;;;;8.43;5.55;;;2.80;88.90;;;;;;5093193;28;20556;-77
2021/04/09 02:22:48;;;;;;;7.10;4.90;;;2.80;88.90;;;;;;5079344;28;20062;-77
2021/04/09 02:25:16;;;;;;;7.20;4.95;;;2.80;89.20;;;;;;5093137;28;20048;-76
2021/04/09 02:27:44;;;;;;;7.35;5.25;;;2.80;88.60;;;;;;5092887;28;20036;-77
2021/04/09 02:30:13;;;;;;;7.20;5.43;;;2.70;88.50;;;;;;5093412;28;20043;-78
2021/04/09 02:32:39;;;;;;;8.07;5.65;;;2.70;88.50;;;;;;5091577;28;20073;-77
2021/04/09 02:35:07;;;;;;;7.28;5.25;;;2.60;88.60;;;;;;5092757;28;20024;-77
2021/04/09 02:37:32;;;;;;;;;;;2.60;88.90;;;;;;5093048;28;20036;-75
2021/04/09 02:40:04;;;;;;;8.18;6.32;;;2.60;88.90;;;;;;5092731;28;19956;-77
2021/04/09 02:42:29;;;;;;;12.75;7.00;;;2.70;89.00;;;;;;5092549;28;20058;-79
2021/04/09 02:44:55;;;;;;;8.00;5.82;;;2.70;89.00;;;;;;5092706;28;20473;-78
2021/04/09 02:47:27;;;;;;;6.85;5.22;;;2.80;89.00;;;;;;5092794;28;20024;-78
2021/04/09 02:50:16;;;;;;;8.32;5.63;;;2.80;88.80;;;;;;5092472;28;20023;-76
2021/04/09 02:52:50;;;;;;;9.95;5.32;;;2.90;88.90;;;;;;5092276;28;20023;-77
2021/04/09 02:55:19;;;;;;;9.52;6.18;;;2.90;88.90;;;;;;5092777;28;20095;-78
2021/04/09 02:57:47;;;;;;;9.38;6.78;;;3.00;88.80;;;;;;5092237;28;20039;-77
2021/04/09 03:00:13;;;;;;;6.82;5.40;;;3.00;88.40;;;;;;5092915;28;20022;-78
2021/04/09 03:02:39;;;;;;;10.13;6.18;;;3.00;88.00;;;;;;5074387;28;20020;-77
2021/04/09 03:05:08;;;;;;;5.97;5.10;;;3.00;88.00;;;;;;5074029;28;20039;-76
2021/04/09 03:07:37;;;;;;;9.23;6.25;;;2.90;88.20;;;;;;5092669;28;20092;-76
2021/04/09 03:10:11;;;;;;;9.90;5.60;;;2.90;88.30;;;;;;5092353;28;20469;-77
2021/04/09 03:12:37;;;;;;;9.63;5.68;;;2.90;88.20;;;;;;5092531;28;20043;-77
2021/04/09 03:15:05;;;;;;;8.88;5.22;;;2.90;87.90;;;;;;5092319;28;20053;-77
2021/04/09 03:17:43;;;;;;;8.18;5.40;;;2.80;87.90;;;;;;5092204;28;20068;-77
2021/04/09 03:20:09;;;;;;;6.93;5.07;;;2.80;87.90;;;;;;5074078;28;20031;-76
2021/04/09 03:22:35;;;;;;;8.98;6.63;;;2.70;88.20;;;;;;5092138;28;20427;-78
2021/04/09 03:25:01;;;;;;;8.10;6.00;;;2.60;88.30;;;;;;5092210;28;20031;-76
2021/04/09 03:27:27;;;;;;;11.00;6.22;;;2.60;88.60;;;;;;5092281;28;20028;-76
2021/04/09 03:29:52;;;;;;;11.02;6.30;;;2.60;88.70;;;;;;5092055;28;20420;-76
2021/04/09 03:32:18;;;;;;;8.82;6.15;;;2.60;88.70;;;;;;5091951;28;20024;-77
2021/04/09 03:34:45;;;;;;;6.65;5.20;;;2.60;88.80;;;;;;5092114;28;20056;-78
2021/04/09 03:37:11;;;;;;;8.70;6.20;;;2.60;88.60;;;;;;5092029;28;20095;-77
2021/04/09 03:39:37;;;;;;;8.82;5.45;;;2.60;88.50;;;;;;5091899;28;20190;-77
2021/04/09 03:42:04;;;;;;;8.63;6.80;;;2.70;88.70;;;;;;5092340;28;20028;-78
2021/04/09 03:44:30;;;;;;;9.85;5.85;;;2.80;88.70;;;;;;5092014;28;20028;-77
2021/04/09 03:46:55;;;;;;;7.85;5.75;;;2.80;88.60;;;;;;5092165;28;20039;-77
2021/04/09 03:49:21;;;;;;;7.88;4.70;;;2.90;88.30;;;;;;5091888;28;20073;-77
2021/04/09 03:51:47;;;;;;;8.95;6.20;;;3.00;88.00;;;;;;5092019;28;20028;-76
2021/04/09 03:54:13;;;;;;;9.40;5.80;;;3.00;88.00;;;;;;5091871;28;20078;-75
2021/04/09 03:56:39;;;;;;;10.18;6.32;;;3.20;88.00;;;;;;5091587;28;20428;-77
2021/04/09 03:59:05;;;;;;;7.03;5.78;;;3.40;87.40;;;;;;5091836;28;20040;-79
2021/04/09 04:01:31;;;;;;;8.18;6.18;;;3.60;86.80;;;;;;5091898;28;20031;-78
2021/04/09 04:03:56;;;;;;;9.68;5.47;;;3.70;86.40;;;;;;5085836;28;20024;-77
2021/04/09 04:06:23;;;;;;;10.15;5.65;;;3.70;85.60;;;;;;5090991;28;20366;-76
2021/04/09 04:08:49;;;;;;;10.80;6.85;;;3.70;85.60;;;;;;5061281;28;20020;-77
2021/04/09 04:11:15;;;;;;;8.98;6.18;;;3.80;85.30;;;;;;5091724;28;20044;-77
2021/04/09 04:13:41;;;;;;;7.43;5.97;;;3.70;85.10;;;;;;5091451;28;20392;-76
2021/04/09 04:16:07;;;;;;;8.70;6.72;;;3.80;85.00;;;;;;5091764;28;20030;-78
2021/04/09 04:18:33;;;;;;;9.02;6.20;;;3.70;84.60;;;;;;5093940;28;20032;-79
2021/04/09 04:20:59;;;;;;;8.45;7.03;;;3.60;84.70;;;;;;5095037;28;20137;-78
2021/04/09 04:23:24;;;;;;;14.15;6.82;;;3.60;85.10;;;;;;5095440;28;20024;-78
2021/04/09 04:25:50;;;;;;;8.20;6.30;;;3.70;85.20;;;;;;5088509;28;20082;-76
2021/04/09 04:28:16;;;;;;;10.60;6.80;;;3.70;85.00;;;;;;5084973;28;20020;-77
2021/04/09 04:30:42;;;;;;;9.68;5.75;;;3.60;84.40;;;;;;5094978;28;20078;-76
2021/04/09 04:33:08;;;;;;;7.97;6.30;;;3.50;84.30;;;;;;5076694;28;20081;-78
2021/04/09 04:35:34;;;;;;;11.73;6.15;;;3.30;84.80;;;;;;5076918;28;20024;-77
2021/04/09 04:38:00;;;;;;;11.25;6.18;;;3.40;85.10;;;;;;5076571;28;20481;-76
2021/04/09 04:40:27;;;;;;;7.82;5.75;;;3.40;85.00;;;;;;5076482;28;20106;-78
2021/04/09 04:42:53;;;;;;;12.53;6.43;;;3.40;85.10;;;;;;5094812;28;20032;-79
2021/04/09 04:45:18;;;;;;;10.35;6.47;;;3.50;85.00;;;;;;5095057;28;20323;-80
2021/04/09 04:47:45;;;;;;;10.35;6.38;;;3.60;84.90;;;;;;5095798;28;20065;-76
2021/04/09 04:50:11;;;;;;;13.52;7.10;;;3.70;84.70;;;;;;5083177;28;20024;-76
2021/04/09 04:52:37;;;;;;;11.52;7.25;;;3.70;84.40;;;;;;5077527;28;20035;-78
2021/04/09 04:55:04;;;;;;;8.30;6.68;;;3.80;84.20;;;;;;5076448;28;20499;-79
2021/04/09 04:57:29;;;;;;;10.87;7.87;;;3.70;83.80;;;;;;5094289;28;20526;-78
2021/04/09 04:59:55;;;;;;;10.27;6.28;;;3.70;83.90;;;;;;5094596;28;20348;-77
2021/04/09 05:02:21;;;;;;;9.40;5.60;;;3.90;84.20;;;;;;5093029;28;20024;-78
2021/04/09 05:04:47;;;;;;;10.85;5.78;;;4.00;83.90;;;;;;5094018;28;20016;-79
2021/04/09 05:07:13;;;;;;;9.55;6.80;;;4.00;84.40;;;;;;5094534;28;20024;-77
2021/04/09 05:09:38;;;;;;;10.07;6.35;;;4.20;83.60;;;;;;5081298;28;20060;-77
2021/04/09 05:12:05;;;;;;;9.55;5.88;;;4.50;84.10;;;;;;5094392;28;20044;-77
2021/04/09 05:14:31;;;;;;;8.60;6.38;;;5.10;83.80;;;;;;5086906;28;20194;-79
2021/04/09 05:16:57;;;;;;;10.38;6.63;;;5.80;80.90;;;;;;5075835;28;20552;-76
2021/04/09 05:19:23;;;;;;;8.07;6.18;;;6.90;79.30;;;;;;5094438;28;20020;-78
2021/04/09 05:21:48;;;;;;;10.60;5.57;;;8.10;74.60;;;;;;5094326;28;20146;-78
2021/04/09 05:24:14;;;;;;;9.27;6.78;;;8.80;70.00;;;;;;5094154;28;20166;-76
2021/04/09 05:26:40;;;;;;;7.60;5.70;;;8.40;67.50;;;;;;5094024;28;20424;-79
2021/04/09 05:29:06;;;;;;;8.43;5.75;;;7.90;68.60;;;;;;5072391;28;20389;-77
2021/04/09 05:31:35;;;;;;;8.68;5.90;;;7.40;69.60;;;;;;5093568;28;20126;-82
2021/04/09 05:34:01;;;;;;;9.15;6.60;;;7.10;70.70;;;;;;5084531;28;20095;-79
2021/04/09 05:36:26;;;;;;;8.27;5.38;;;6.70;70.90;;;;;;5093550;28;20441;-80
2021/04/09 05:38:52;;;;;;;10.23;6.78;;;6.30;72.10;;;;;;5093137;28;20044;-83
2021/04/09 05:41:18;;;;;;;10.20;5.95;;;6.10;73.00;;;;;;5087587;28;20024;-80
2021/04/09 05:43:44;;;;;;;8.90;5.82;;;6.20;73.30;;;;;;5094155;28;20028;-80
2021/04/09 05:46:09;;;;;;;8.70;5.93;;;6.30;73.30;;;;;;5093403;28;20473;-80
2021/04/09 05:48:35;;;;;;;12.27;5.63;;;6.20;72.90;;;;;;5075261;28;20024;-79
2021/04/09 05:51:01;;;;;;;7.90;5.68;;;5.70;73.30;;;;;;5088439;28;20099;-80
2021/04/09 05:53:27;;;;;;;9.73;6.10;;;5.40;74.40;;;;;;5093919;28;20028;-79
2021/04/09 05:55:53;;;;;;;11.82;6.35;;;5.40;75.50;;;;;;5092910;28;20485;-80
2021/04/09 05:58:19;;;;;;;10.07;6.00;;;5.60;75.80;;;;;;5093108;28;20505;-80
2021/04/09 06:00:45;;;;;;;12.65;9.63;;;5.70;74.80;;;;;;5092966;28;20099;-82
2021/04/09 06:03:10;;;;;;;8.73;5.95;;;5.60;75.50;;;;;;5093137;28;20058;-81
2021/04/09 06:05:36;;;;;;;8.85;6.15;;;5.80;75.30;;;;;;5093254;28;20032;-81
2021/04/09 06:08:04;;;;;;;9.27;6.40;;;6.00;75.50;;;;;;5095009;28;20024;-80
2021/04/09 06:10:30;;;;;;;10.50;6.55;;;6.20;73.70;;;;;;5093325;28;20499;-81
2021/04/09 06:12:56;;;;;;;9.23;5.97;;;6.30;73.30;;;;;;5094475;28;20028;-80
2021/04/09 06:15:22;;;;;;;9.80;6.05;;;6.40;73.30;;;;;;5074585;28;20031;-80
2021/04/09 06:17:47;;;;;;;10.77;6.22;;;6.50;72.60;;;;;;5093274;28;20480;-80
2021/04/09 06:20:14;;;;;;;15.23;9.93;;;6.40;72.60;;;;;;5093783;28;20030;-80
2021/04/09 06:22:42;;;;;;;13.80;7.50;;;6.50;73.40;;;;;;5093106;28;20024;-79
2021/04/09 06:25:09;;;;;;;8.05;5.72;;;7.00;72.70;;;;;;5093009;28;20030;-79
2021/04/09 06:27:35;;;;;;;7.30;5.07;;;7.30;70.50;;;;;;5093581;28;20421;-79
2021/04/09 06:30:02;;;;;;;10.13;5.60;;;7.20;69.90;;;;;;5092616;28;20024;-81
2021/04/09 06:32:28;;;;;;;11.40;5.72;;;7.80;70.80;;;;;;5092685;28;20016;-79
2021/04/09 06:34:57;;;;;;;6.72;4.22;;;9.80;69.00;;;;;;5092796;28;20047;-80
2021/04/09 06:37:22;;;;;;;7.85;6.15;;;11.70;60.40;;;;;;5092950;28;20162;-81
2021/04/09 06:39:48;;;;;;;7.05;4.95;;;13.50;55.80;;;;;;5074950;28;20032;-80
2021/04/09 06:42:18;;;;;;;8.75;4.57;;;14.00;51.40;;;;;;5092696;28;20028;-80
2021/04/09 06:44:45;;;;;;;7.57;4.95;;;13.90;49.80;;;;;;5092901;28;20020;-81
2021/04/09 06:47:11;;;;;;;8.82;4.72;;;13.80;50.70;;;;;;5092821;28;20095;-83
2021/04/09 06:49:37;;;;;;;7.07;4.88;;;15.00;49.50;;;;;;5092718;28;20165;-80
2021/04/09 06:52:03;;;;;;;9.52;5.00;;;16.00;46.50;;;;;;5092992;28;20479;-80
2021/04/09 06:54:30;;;;;;;8.25;4.47;;;17.00;43.30;;;;;;5074609;28;20024;-80
2021/04/09 06:56:57;;;;;;;9.98;5.32;;;17.50;41.40;;;;;;5093181;28;20020;-81
2021/04/09 06:59:30;;;;;;;5.45;4.07;;;17.10;41.30;;;;;;5092377;28;20127;-81
2021/04/09 07:02:00;;;;;;;8.00;5.00;;;15.40;42.10;;;;;;5079148;28;20115;-80
2021/04/09 07:04:25;;;;;;;6.75;5.00;;;14.00;45.00;;;;;;5074061;28;20032;-80
2021/04/09 07:06:52;;;;;;;7.13;5.47;;;13.50;47.00;;;;;;5092177;28;20016;-81
2021/04/09 07:09:18;;;;;;;5.03;4.53;;;14.20;47.10;;;;;;5074205;28;20016;-80
2021/04/09 07:11:53;;;;;;;13.98;5.15;;;15.00;45.40;;;;;;5091917;28;20519;-81
2021/04/09 07:14:19;;;;;;;9.82;5.32;;;15.30;43.80;;;;;;5092261;28;20424;-81
2021/04/09 07:17:04;;;;;;;8.43;4.70;;;15.30;44.10;;;;;;5092276;28;20377;-80
2021/04/09 07:19:34;;;;;;;9.13;4.40;;;15.40;43.60;;;;;;5079555;28;20039;-81
2021/04/09 07:22:02;;;;;;;8.23;4.28;;;15.40;43.50;;;;;;5091874;28;20024;-81
2021/04/09 07:24:28;;;;;;;5.50;4.35;;;15.30;43.20;;;;;;5092487;28;20051;-81
2021/04/09 07:26:55;;;;;;;8.32;4.65;;;14.80;43.20;;;;;;5092443;28;20052;-80
2021/04/09 07:29:39;;;;;;;9.05;5.05;;;14.80;44.50;;;;;;5092290;28;20407;-79
2021/04/09 07:32:12;;;;;;;6.25;4.57;;;15.10;43.70;;;;;;5092124;28;20385;-79
2021/04/09 07:34:53;;;;;;;10.73;5.82;;;14.50;43.90;;;;;;5077968;28;20020;-79
2021/04/09 07:37:23;;;;;;;4.88;4.38;;;15.00;44.60;;;;;;5073694;28;20025;-79
2021/04/09 07:39:57;;;;;;;10.13;5.18;;;16.10;43.00;;;;;;5092558;28;20020;-78
2021/04/09 07:42:49;;;;;;;7.75;4.55;;;16.40;41.20;;;;;;5092473;28;20028;-79
2021/04/09 07:45:16;;;;;;;8.38;4.45;;;16.40;40.90;;;;;;5078176;28;20032;-79
2021/04/09 07:47:59;;;;;;;7.70;4.60;;;15.60;40.70;;;;;;5073649;28;20020;-78
2021/04/09 07:50:38;;;;;;;13.40;5.05;;;15.20;42.10;;;;;;5092903;28;20043;-79
2021/04/09 07:53:05;;;;;;;8.63;4.60;;;16.00;42.30;;;;;;5092846;28;20427;-81
2021/04/09 07:55:32;;;;;;;8.30;4.20;;;17.40;40.00;;;;;;5095518;28;20162;-80
2021/04/09 07:58:24;;;;;;;7.20;4.53;;;18.10;37.60;;;;;;5095654;28;20040;-80
2021/04/09 08:00:52;;;;;;;10.05;4.68;;;19.10;37.20;;;;;;5096406;28;20016;-79
2021/04/09 08:03:36;;;;;;;6.93;4.63;;;19.90;35.20;;;;;;5096221;28;20111;-79
2021/04/09 08:06:20;;;;;;;13.50;5.05;;;20.70;34.50;;;;;;5095562;28;20024;-81
2021/04/09 08:08:46;;;;;;;10.98;5.65;;;20.60;33.60;;;;;;5082305;28;20028;-80
2021/04/09 08:11:23;;;;;;;5.30;3.88;;;20.90;32.90;;;;;;5095740;28;20169;-81
2021/04/09 08:14:04;;;;;;;6.10;4.18;;;21.00;32.70;;;;;;5063943;28;20020;-80
2021/04/09 08:16:34;;;;;;;4.57;3.78;;;20.80;33.00;;;;;;5097172;28;20068;-80
2021/04/09 08:19:04;;;;;;;4.95;4.32;;;21.20;31.80;;;;;;5097313;28;20024;-79
2021/04/09 08:21:33;;;;;;;6.45;4.03;;;21.90;30.80;;;;;;5095741;28;20119;-80
2021/04/09 08:24:00;;;;;;;6.93;4.15;;;22.10;30.00;;;;;;5097800;28;20024;-81
2021/04/09 08:26:28;;;;;;;10.63;4.18;;;22.70;30.20;;;;;;5080137;28;20030;-79
2021/04/09 08:28:56;;;;;;;6.05;3.00;;;23.70;29.10;;;;;;5094751;28;20111;-80
2021/04/09 08:31:23;;;;;;;8.43;4.22;;;24.30;28.00;;;;;;5095061;28;20019;-80
2021/04/09 08:33:49;;;;;;;4.95;3.30;;;22.90;28.40;;;;;;5095096;28;20035;-79
2021/04/09 08:36:16;;;;;;;8.07;4.17;;;22.70;28.80;;;;;;5094922;28;20444;-80
2021/04/09 08:38:43;;;;;;;7.28;4.40;;;23.40;28.70;;;;;;5095009;28;20810;-80
2021/04/09 08:41:11;;;;;;;6.95;3.47;;;23.70;28.40;;;;;;5062531;28;20031;-80
2021/04/09 08:43:37;;;;;;;6.45;3.40;;;23.50;28.00;;;;;;5076730;28;20114;-82
2021/04/09 08:46:06;;;;;;;10.63;6.03;;;23.30;28.20;;;;;;5094834;28;20042;-82
2021/04/09 08:48:33;;;;;;;8.63;4.32;;;22.90;29.00;;;;;;5094632;28;20374;-80
2021/04/09 08:50:59;;;;;;;;;;;23.10;29.00;;;;;;5095152;28;20407;-79
2021/04/09 08:53:30;;;;;;;7.05;4.88;;;23.70;29.80;;;;;;5094758;28;19910;-81
2021/04/09 08:55:57;;;;;;;9.05;4.22;;;24.50;27.60;;;;;;5094775;28;20032;-79
2021/04/09 08:58:23;;;;;;;7.18;3.10;;;25.20;27.00;;;;;;5094316;28;20020;-80
2021/04/09 09:00:50;;;;;;;6.47;3.78;;;24.50;26.30;;;;;;5094632;28;20507;-79
2021/04/09 09:03:29;;;;;;;3.58;3.15;;;23.70;26.60;;;;;;5094283;28;20081;-82
2021/04/09 09:05:58;;;;;;;4.57;3.20;;;20.90;27.80;;;;;;5094424;28;20491;-82
2021/04/09 09:08:43;;;;;;;3.72;3.15;;;19.50;29.90;;;;;;5094130;28;20032;-80
2021/04/09 09:11:11;;;;;;;7.95;3.65;;;19.60;30.00;;;;;;5094005;28;20094;-79
2021/04/09 09:13:46;;;;;;;6.05;4.43;;;18.90;29.70;;;;;;5094525;28;20489;-80
2021/04/09 09:16:20;;;;;;;5.40;2.85;;;18.50;31.10;;;;;;5076280;28;20028;-80
2021/04/09 09:18:51;;;;;;;8.13;2.97;;;18.80;30.70;;;;;;5075909;28;20020;-79
2021/04/09 09:21:19;;;;;;;5.22;3.28;;;19.90;30.10;;;;;;5075894;28;20026;-81
2021/04/09 09:23:49;;;;;;;5.10;3.33;;;21.20;28.90;;;;;;5093819;28;20021;-81
2021/04/09 09:26:24;;;;;;;7.93;2.70;;;21.50;28.50;;;;;;5095233;28;20047;-81
2021/04/09 09:29:11;;;;;;;5.82;2.83;;;22.70;28.30;;;;;;5094859;28;20035;-81
2021/04/09 09:31:40;;;;;;;7.10;2.90;;;23.80;27.20;;;;;;5094325;28;20089;-80
2021/04/09 09:34:21;;;;;;;7.82;2.90;;;23.60;26.80;;;;;;5093832;28;20016;-80
2021/04/09 09:37:18;;;;;;;8.30;3.30;;;23.30;26.00;;;;;;5094341;28;20469;-80
2021/04/09 09:40:02;;;;;;;;;;;22.30;26.20;;;;;;5094359;28;20031;-81
2021/04/09 09:42:28;;;;;;;4.78;2.47;;;22.30;27.90;;;;;;5088531;28;19914;-80
2021/04/09 09:44:55;;;;;;;6.55;2.38;;;21.40;26.50;;;;;;5093980;28;20020;-80
2021/04/09 09:47:32;;;;;;;5.70;2.57;;;21.10;27.60;;;;;;5093420;28;20056;-81
2021/04/09 09:50:00;;;;;;;;;;;21.60;27.50;;;;;;5080044;28;20253;-80
2021/04/09 09:53:00;;;;;;;2.72;1.60;;;22.30;27.60;;;;;;5075113;28;19965;-80
2021/04/09 09:55:27;;;;;;;3.38;1.75;;;22.20;26.10;;;;;;5073024;28;20035;-82
2021/04/09 09:58:11;;;;;;;4.60;1.90;;;22.00;25.50;;;;;;5088837;28;20105;-82
2021/04/09 10:00:37;;;;;;;7.85;4.07;;;22.10;25.90;;;;;;5076161;28;20492;-80
2021/04/09 10:03:24;;;;;;;7.38;2.30;;;22.60;25.80;;;;;;5097346;28;20101;-82
2021/04/09 10:05:55;;;;;;;4.88;2.63;;;23.50;25.60;;;;;;5094525;28;20017;-81
2021/04/09 10:08:22;;;;;;;6.15;2.63;;;24.10;25.10;;;;;;5093215;28;20343;-81
2021/04/09 10:10:47;;;;;;;;;;;23.00;25.10;;;;;;5075258;28;20182;-80
2021/04/09 10:13:24;;;;;;;4.07;2.35;;;22.70;26.60;;;;;;5093219;28;20321;-80
2021/04/09 10:15:52;;;;;;;5.30;3.60;;;23.50;25.50;;;;;;5092335;28;20468;-82
2021/04/09 10:18:19;;;;;;;10.38;1.98;;;24.30;25.10;;;;;;5093144;28;20020;-81
2021/04/09 10:20:47;;;;;;;7.10;2.58;;;24.80;24.10;;;;;;5092931;28;20020;-80
2021/04/09 10:23:14;;;;;;;4.97;2.20;;;25.40;24.00;;;;;;5093503;28;20028;-81
2021/04/09 10:25:40;;;;;;;3.22;1.40;;;24.80;23.20;;;;;;5093500;28;20050;-81
2021/04/09 10:28:13;;;;;;;4.60;1.95;;;22.80;23.90;;;;;;5095343;28;20118;-80
2021/04/09 10:30:40;;;;;;;3.92;2.28;;;20.30;25.40;;;;;;5076447;28;20016;-78
2021/04/09 10:33:06;;;;;;;5.65;2.47;;;18.70;27.60;;;;;;5075412;28;20024;-80
2021/04/09 10:35:33;;;;;;;3.47;1.80;;;17.50;28.90;;;;;;5093068;28;20032;-81
2021/04/09 10:38:17;;;;;;;6.45;1.98;;;16.60;30.00;;;;;;5093521;28;20390;-80
2021/04/09 10:40:57;;;;;;;3.88;2.25;;;15.70;30.00;;;;;;5075524;28;20032;-82
2021/04/09 10:43:34;;;;;;;4.32;1.95;;;15.00;30.60;;;;;;5094478;28;20020;-80
2021/04/09 10:46:12;;;;;;;5.32;2.47;;;14.10;31.10;;;;;;5093471;28;20102;-81
2021/04/09 10:48:39;;;;;;;2.05;1.40;;;13.60;32.10;;;;;;5093220;28;20467;-80
2021/04/09 10:51:06;;;;;;;4.78;2.03;;;13.00;31.20;;;;;;5092643;28;20058;-80
2021/04/09 10:53:32;;;;;;;6.90;2.15;;;12.50;32.90;;;;;;5074522;28;20035;-79
2021/04/09 10:56:07;;;;;;;5.85;1.98;;;12.40;33.70;;;;;;5074488;28;20032;-80
2021/04/09 10:58:34;;;;;;;4.90;1.70;;;12.50;33.30;;;;;;5079260;28;20020;-80
2021/04/09 11:01:00;;;;;;;4.40;1.80;;;12.40;33.00;;;;;;5092756;28;20024;-81
2021/04/09 11:03:27;;;;;;;3.22;1.63;;;12.30;32.30;;;;;;5092618;28;20843;-79
2021/04/09 11:05:53;;;;;;;4.45;2.00;;;12.20;32.60;;;;;;5093885;28;20020;-80
2021/04/09 11:08:33;;;;;;;7.32;2.67;;;12.20;32.10;;;;;;5094630;28;20032;-80
2021/04/09 11:11:07;;;;;;;6.57;2.60;;;12.20;32.90;;;;;;5074830;28;20055;-80
2021/04/09 11:13:36;;;;;;;5.80;2.22;;;12.30;33.60;;;;;;5076371;28;20016;-81
2021/04/09 11:16:02;;;;;;;8.15;2.28;;;12.30;34.80;;;;;;5094431;28;20024;-81
2021/04/09 11:18:48;;;;;;;3.42;1.80;;;12.20;35.40;;;;;;5094827;28;20020;-80
2021/04/09 11:21:15;;;;;;;2.58;1.42;;;12.00;35.00;;;;;;5080068;28;20027;-80
2021/04/09 11:23:41;;;;;;;4.25;1.83;;;11.80;33.10;;;;;;5092199;28;20381;-80
2021/04/09 11:26:17;;;;;;;8.32;2.05;;;11.50;34.40;;;;;;5091892;28;20028;-80
2021/04/09 11:28:54;;;;;;;3.72;1.67;;;11.10;35.10;;;;;;5096408;28;20043;-80
2021/04/09 11:31:27;;;;;;;3.10;1.77;;;11.10;34.80;;;;;;5083194;28;20150;-80
2021/04/09 11:34:10;;;;;;;4.45;1.67;;;11.10;34.90;;;;;;5095801;28;20469;-81
2021/04/09 11:37:03;;;;;;;5.43;1.75;;;10.90;34.00;;;;;;5062662;28;20024;-79
2021/04/09 11:39:32;;;;;;;5.90;1.77;;;10.60;34.70;;;;;;5091748;28;20055;-80
2021/04/09 11:42:02;;;;;;;2.65;1.50;;;10.60;35.10;;;;;;5097277;28;20024;-79
2021/04/09 11:44:32;;;;;;;8.85;4.63;;;10.60;35.50;;;;;;5077785;28;20031;-78
2021/04/09 11:47:10;;;;;;;5.03;1.98;;;10.30;36.00;;;;;;5077684;28;20031;-80
2021/04/09 11:49:36;;;;;;;5.50;1.73;;;10.40;36.60;;;;;;5095815;28;20070;-80
2021/04/09 11:52:06;;;;;;;2.97;1.83;;;10.40;36.00;;;;;;5077681;28;20477;-81
2021/04/09 11:54:33;;;;;;;6.63;1.85;;;10.30;35.80;;;;;;5077307;28;20020;-78
2021/04/09 11:56:59;;;;;;;3.65;1.98;;;10.20;36.50;;;;;;5077388;28;20040;-81
2021/04/09 11:59:25;;;;;;;6.85;2.55;;;10.00;36.90;;;;;;5077731;28;20073;-78
2021/04/09 12:01:52;;;;;;;6.47;2.28;;;9.90;37.50;;;;;;5096888;28;20460;-79
2021/04/09 12:04:38;;;;;;;3.42;1.77;;;10.10;37.80;;;;;;5077647;28;20112;-79
2021/04/09 12:07:15;;;;;;;4.90;1.83;;;10.40;36.90;;;;;;5082439;28;20042;-80
2021/04/09 12:09:42;;;;;;;5.28;1.50;;;10.60;36.70;;;;;;5095830;28;20111;-80
2021/04/09 12:12:14;;;;;;;9.55;2.28;;;10.80;36.60;;;;;;5095817;28;20067;-79
2021/04/09 12:14:53;;;;;;;9.75;1.77;;;10.90;36.10;;;;;;5094973;28;20031;-80
2021/04/09 12:17:21;;;;;;;2.50;1.33;;;11.20;34.80;;;;;;5094708;28;20377;-79
2021/04/09 12:19:48;;;;;;;4.97;1.90;;;11.00;33.30;;;;;;5095030;28;20020;-78
2021/04/09 12:22:14;;;;;;;;;;;10.60;34.40;;;;;;5077006;28;20027;-81
2021/04/09 12:24:41;;;;;;;4.55;1.40;;;10.50;34.50;;;;;;5095184;28;19908;-80
2021/04/09 12:27:07;;;;;;;4.68;2.97;;;10.40;35.10;;;;;;5095618;28;20036;-79
2021/04/09 12:29:34;;;;;;;7.38;3.10;;;10.30;37.20;;;;;;5095346;28;20039;-79
2021/04/09 12:32:00;;;;;;;6.03;2.63;;;10.30;37.60;;;;;;5095415;28;20016;-80
2021/04/09 12:34:26;;;;;;;3.40;1.90;;;10.20;38.50;;;;;;5094991;28;20035;-81
2021/04/09 12:36:52;;;;;;;7.13;2.33;;;10.00;37.60;;;;;;5094853;28;20099;-80
2021/04/09 12:39:19;;;;;;;6.15;2.35;;;9.90;37.80;;;;;;5093801;28;20047;-79
2021/04/09 12:41:46;;;;;;;4.22;1.50;;;10.00;36.90;;;;;;5095281;28;20017;-79
2021/04/09 12:44:16;;;;;;;3.38;1.52;;;10.10;36.50;;;;;;5095974;28;20063;-80
2021/04/09 12:46:47;;;;;;;2.58;1.40;;;10.10;36.30;;;;;;5097037;28;20020;-79
2021/04/09 12:49:14;;;;;;;7.07;2.30;;;10.30;36.60;;;;;;5095306;28;20485;-79
2021/04/09 12:51:39;;;;;;;6.63;2.40;;;10.30;36.70;;;;;;5095253;28;20029;-81
2021/04/09 12:54:05;;;;;;;10.55;2.10;;;10.20;37.10;;;;;;5077024;28;20032;-81
2021/04/09 12:56:31;;;;;;;3.53;1.48;;;10.30;37.30;;;;;;5095545;28;20020;-80
2021/04/09 12:58:57;;;;;;;4.63;1.80;;;10.30;37.60;;;;;;5094985;28;20131;-81
2021/04/09 13:01:23;;;;;;;5.05;2.42;;;10.20;37.30;;;;;;5094784;28;20103;-80
2021/04/09 13:03:49;;;;;;;3.50;1.58;;;10.20;37.00;;;;;;5094711;28;20031;-80
2021/04/09 13:06:15;;;;;;;3.25;1.77;;;10.00;36.60;;;;;;5094331;28;20016;-80
2021/04/09 13:08:42;;;;;;;4.53;1.80;;;9.90;37.20;;;;;;5094425;28;20119;-80